createdAt,value
2023-03-04T00:00:22.058Z,56.67
2023-03-04T00:02:51.777Z,49.03
2023-03-04T00:05:21.487Z,51.63
2023-03-04T00:07:51.165Z,69.60
2023-03-04T00:10:21.050Z,57.85
2023-03-04T00:13:04.746Z,65.05
2023-03-04T00:15:37.146Z,67.65
2023-03-04T00:18:07.073Z,70.05
2023-03-04T00:20:36.744Z,80.57
2023-03-04T00:23:06.411Z,100.32
2023-03-04T00:25:36.068Z,92.13
2023-03-04T00:28:05.758Z,81.28
2023-03-04T00:30:38.101Z,100.85
2023-03-04T00:33:07.854Z,70.75
2023-03-04T00:35:37.824Z,70.07
2023-03-04T00:38:07.549Z,78.93
2023-03-04T00:40:37.260Z,101.50
2023-03-04T00:43:07.722Z,106.95
2023-03-04T00:45:40.089Z,76.50
2023-03-04T00:48:11.564Z,67.25
2023-03-04T00:50:41.567Z,64.57
2023-03-04T00:53:11.235Z,64.68
2023-03-04T00:55:40.904Z,55.60
2023-03-04T00:58:10.618Z,60.78
2023-03-04T01:00:42.899Z,68.57
2023-03-04T01:03:12.606Z,72.43
2023-03-04T01:05:42.688Z,53.97
2023-03-04T01:08:12.361Z,69.95
2023-03-04T01:10:42.086Z,63.38
2023-03-04T01:13:11.766Z,53.38
2023-03-04T01:15:44.076Z,70.60
2023-03-04T01:18:13.862Z,66.15
2023-03-04T01:20:44.655Z,67.75
2023-03-04T01:23:14.306Z,64.50
2023-03-04T01:25:44.920Z,57.85
2023-03-04T01:28:14.605Z,53.55
2023-03-04T01:30:46.869Z,60.17
2023-03-04T01:33:16.577Z,64.57
2023-03-04T01:35:46.329Z,48.38
2023-03-04T01:38:16.050Z,54.03
2023-03-04T01:40:45.784Z,62.55
2023-03-04T01:43:20.124Z,63.38
2023-03-04T01:45:53.039Z,56.20
2023-03-04T01:48:25.357Z,61.78
2023-03-04T01:50:55.108Z,52.80
2023-03-04T01:53:25.971Z,67.70
2023-03-04T01:55:55.788Z,56.15
2023-03-04T01:58:26.703Z,58.13
2023-03-04T02:00:59.016Z,45.58
2023-03-04T02:03:28.726Z,57.47
2023-03-04T02:05:59.082Z,40.80
2023-03-04T02:08:28.762Z,53.50
2023-03-04T02:10:59.925Z,45.60
2023-03-04T02:13:29.611Z,48.78
2023-03-04T02:16:01.941Z,52.40
2023-03-04T02:18:31.680Z,59.28
2023-03-04T02:21:06.272Z,58.78
2023-03-04T02:23:38.470Z,52.20
2023-03-04T02:26:16.517Z,48.15
2023-03-04T02:28:47.132Z,58.28
2023-03-04T02:31:24.042Z,53.95
2023-03-04T02:33:53.908Z,42.80
2023-03-04T02:36:23.756Z,45.75
2023-03-04T02:38:54.372Z,54.38
2023-03-04T02:41:27.329Z,56.97
2023-03-04T02:43:58.100Z,45.10
2023-03-04T02:46:27.873Z,46.17
2023-03-04T02:48:57.785Z,45.55
2023-03-04T02:51:27.487Z,39.20
2023-03-04T02:53:57.186Z,43.63
2023-03-04T02:56:29.598Z,44.08
2023-03-04T02:58:59.399Z,45.83
2023-03-04T03:01:31.257Z,47.70
2023-03-04T03:04:00.953Z,54.92
2023-03-04T03:06:30.748Z,44.30
2023-03-04T03:09:00.433Z,62.38
2023-03-04T03:11:32.858Z,41.05
2023-03-04T03:14:02.634Z,42.00
2023-03-04T03:16:32.619Z,35.60
2023-03-04T03:19:02.554Z,46.20
2023-03-04T03:21:32.379Z,51.30
2023-03-04T03:24:02.078Z,41.55
2023-03-04T03:26:34.748Z,40.38
2023-03-04T03:29:04.438Z,42.85
2023-03-04T03:31:34.162Z,50.90
2023-03-04T03:34:03.857Z,49.90
2023-03-04T03:36:33.668Z,26.13
2023-03-04T03:39:03.381Z,34.08
2023-03-04T03:41:35.649Z,23.02
2023-03-04T03:44:05.387Z,37.55
2023-03-04T03:46:35.398Z,80.45
2023-03-04T03:49:05.079Z,80.80
2023-03-04T03:51:34.748Z,38.38
2023-03-04T03:54:04.428Z,55.78
2023-03-04T03:56:36.726Z,53.55
2023-03-04T03:59:06.462Z,46.70
2023-03-04T04:01:36.465Z,49.58
2023-03-04T04:04:06.239Z,45.55
2023-03-04T04:06:35.926Z,48.67
2023-03-04T04:09:05.628Z,45.47
2023-03-04T04:11:37.907Z,39.47
2023-03-04T04:14:07.584Z,46.60
2023-03-04T04:16:37.258Z,41.97
2023-03-04T04:19:07.022Z,48.40
2023-03-04T04:21:36.665Z,44.50
2023-03-04T04:24:06.423Z,39.10
2023-03-04T04:26:38.728Z,45.05
2023-03-04T04:29:08.509Z,34.80
2023-03-04T04:31:38.522Z,26.60
2023-03-04T04:34:08.189Z,18.15
2023-03-04T04:36:38.064Z,32.80
2023-03-04T04:39:07.787Z,13.05
2023-03-04T04:41:41.278Z,20.70
2023-03-04T04:44:11.341Z,27.83
2023-03-04T04:46:41.311Z,26.08
2023-03-04T04:49:11.478Z,7.50
2023-03-04T04:51:41.467Z,32.78
2023-03-04T04:54:11.162Z,19.17
2023-03-04T04:56:43.512Z,27.60
2023-03-04T04:59:13.274Z,22.63
2023-03-04T05:01:43.028Z,18.17
2023-03-04T05:04:12.763Z,20.48
2023-03-04T05:06:42.427Z,20.63
2023-03-04T05:09:12.118Z,23.73
2023-03-04T05:11:44.447Z,20.42
2023-03-04T05:14:14.134Z,16.58
2023-03-04T05:16:43.850Z,6.63
2023-03-04T05:19:13.589Z,11.02
2023-03-04T05:21:43.300Z,24.63
2023-03-04T05:24:13.071Z,9.80
2023-03-04T05:26:45.702Z,13.35
2023-03-04T05:29:15.422Z,21.80
2023-03-04T05:31:45.148Z,29.23
2023-03-04T05:34:14.868Z,17.83
2023-03-04T05:36:44.703Z,15.73
2023-03-04T05:39:14.387Z,17.75
2023-03-04T05:41:46.709Z,28.35
2023-03-04T05:44:16.434Z,21.20
2023-03-04T05:46:46.152Z,26.35
2023-03-04T05:49:15.863Z,25.60
2023-03-04T05:51:45.545Z,18.50
2023-03-04T05:54:15.205Z,16.48
2023-03-04T05:56:48.274Z,22.92
2023-03-04T05:59:20.927Z,22.17
2023-03-04T06:01:51.125Z,22.65
2023-03-04T06:04:20.805Z,12.55
2023-03-04T06:06:50.532Z,13.40
2023-03-04T06:09:21.180Z,25.48
2023-03-04T06:11:53.486Z,28.73
2023-03-04T06:14:23.222Z,27.67
2023-03-04T06:16:52.941Z,19.15
2023-03-04T06:19:22.774Z,22.33
2023-03-04T06:21:52.435Z,22.50
2023-03-04T06:24:22.154Z,22.10
2023-03-04T06:26:54.450Z,16.52
2023-03-04T06:29:24.240Z,9.55
2023-03-04T06:31:53.996Z,21.13
2023-03-04T06:34:23.811Z,7.28
2023-03-04T06:36:53.495Z,20.00
2023-03-04T06:39:23.191Z,20.40
2023-03-04T06:41:55.556Z,5.07
2023-03-04T06:44:25.225Z,12.80
2023-03-04T06:46:55.021Z,26.52
2023-03-04T06:49:24.783Z,15.90
2023-03-04T06:51:54.454Z,8.75
2023-03-04T06:54:24.281Z,19.15
2023-03-04T06:56:56.600Z,11.48
2023-03-04T06:59:26.316Z,34.53
2023-03-04T07:01:55.973Z,23.25
2023-03-04T07:04:26.148Z,21.85
2023-03-04T07:06:55.804Z,17.17
2023-03-04T07:09:25.504Z,22.85
2023-03-04T07:11:57.774Z,10.57
2023-03-04T07:14:28.052Z,15.73
2023-03-04T07:16:58.139Z,21.13
2023-03-04T07:19:28.123Z,14.05
2023-03-04T07:21:57.921Z,6.88
2023-03-04T07:24:27.911Z,14.93
2023-03-04T07:27:00.186Z,19.35
2023-03-04T07:29:29.879Z,23.52
2023-03-04T07:31:59.765Z,22.17
2023-03-04T07:34:29.598Z,25.83
2023-03-04T07:36:59.225Z,20.60
2023-03-04T07:39:28.892Z,25.60
2023-03-04T07:42:01.185Z,27.65
2023-03-04T07:44:31.088Z,22.52
2023-03-04T07:47:00.810Z,10.90
2023-03-04T07:49:30.606Z,15.07
2023-03-04T07:52:00.260Z,30.02
2023-03-04T07:54:29.915Z,20.95
2023-03-04T07:57:02.168Z,22.67
2023-03-04T07:59:32.020Z,14.95
2023-03-04T08:02:01.712Z,15.98
2023-03-04T08:04:31.402Z,16.15
2023-03-04T08:07:01.169Z,11.57
2023-03-04T08:09:31.503Z,28.75
2023-03-04T08:12:03.761Z,17.15
2023-03-04T08:14:34.063Z,26.27
2023-03-04T08:17:03.755Z,20.73
2023-03-04T08:19:33.479Z,20.63
2023-03-04T08:22:03.151Z,20.02
2023-03-04T08:24:32.811Z,23.35
2023-03-04T08:27:05.173Z,12.10
2023-03-04T08:29:34.951Z,22.98
2023-03-04T08:32:04.736Z,26.38
2023-03-04T08:34:34.461Z,21.13
2023-03-04T08:37:04.129Z,24.75
2023-03-04T08:39:35.762Z,15.02
2023-03-04T08:42:08.136Z,23.27
2023-03-04T08:44:37.822Z,22.25
2023-03-04T08:47:10.429Z,24.20
2023-03-04T08:49:40.147Z,18.27
2023-03-04T08:52:09.891Z,20.70
2023-03-04T08:54:39.579Z,27.80
2023-03-04T08:57:11.957Z,21.75
2023-03-04T08:59:41.715Z,26.08
2023-03-04T09:02:13.022Z,25.15
2023-03-04T09:04:42.692Z,20.88
2023-03-04T09:07:12.584Z,30.38
2023-03-04T09:09:42.249Z,30.42
2023-03-04T09:12:14.602Z,29.05
2023-03-04T09:14:44.298Z,29.85
2023-03-04T09:17:13.975Z,25.95
2023-03-04T09:19:43.890Z,31.27
2023-03-04T09:22:13.558Z,28.40
2023-03-04T09:24:43.268Z,20.50
2023-03-04T09:27:15.563Z,28.90
2023-03-04T09:29:45.902Z,22.75
2023-03-04T09:32:15.645Z,26.63
2023-03-04T09:34:45.446Z,25.55
2023-03-04T09:37:15.380Z,29.90
2023-03-04T09:39:45.041Z,14.77
2023-03-04T09:42:25.379Z,33.22
2023-03-04T09:44:56.378Z,31.42
2023-03-04T09:47:26.549Z,26.60
2023-03-04T09:49:57.896Z,24.50
2023-03-04T09:52:34.890Z,21.48
2023-03-04T09:55:07.099Z,24.25
2023-03-04T09:57:49.022Z,23.75
2023-03-04T10:00:21.865Z,26.08
2023-03-04T10:03:06.514Z,22.77
2023-03-04T10:05:37.957Z,20.38
2023-03-04T10:08:15.108Z,23.10
2023-03-04T10:10:45.500Z,22.70
2023-03-04T10:13:21.637Z,23.73
2023-03-04T10:15:52.442Z,28.45
2023-03-04T10:18:24.948Z,18.23
2023-03-04T10:20:56.569Z,23.83
2023-03-04T10:23:28.278Z,31.17
2023-03-04T10:25:58.197Z,28.13
2023-03-04T10:28:31.407Z,25.60
2023-03-04T10:31:04.848Z,16.98
2023-03-04T10:33:35.191Z,21.60
2023-03-04T10:36:05.800Z,19.13
2023-03-04T10:38:37.254Z,20.95
2023-03-04T10:41:13.914Z,20.05
2023-03-04T10:43:46.888Z,12.13
2023-03-04T10:46:18.393Z,13.63
2023-03-04T10:48:48.066Z,12.90
2023-03-04T10:51:21.484Z,19.25
2023-03-04T10:53:52.308Z,17.33
2023-03-04T10:56:35.280Z,15.30
2023-03-04T10:59:19.861Z,16.98
2023-03-04T11:01:52.983Z,36.83
2023-03-04T11:04:22.975Z,25.58
2023-03-04T11:06:52.617Z,27.38
2023-03-04T11:09:26.536Z,12.00
2023-03-04T11:11:57.748Z,25.52
2023-03-04T11:14:29.553Z,20.15
2023-03-04T11:17:03.128Z,18.02
2023-03-04T11:19:34.682Z,20.15
2023-03-04T11:22:04.758Z,24.65
2023-03-04T11:24:35.894Z,13.95
2023-03-04T11:27:07.601Z,16.67
2023-03-04T11:29:41.085Z,20.73
2023-03-04T11:32:17.487Z,19.17
2023-03-04T11:34:50.059Z,14.00
2023-03-04T11:37:24.379Z,21.70
2023-03-04T11:39:56.053Z,16.63
2023-03-04T11:42:31.422Z,16.95
2023-03-04T11:45:01.294Z,19.15
2023-03-04T11:47:47.122Z,14.43
2023-03-04T11:50:41.789Z,9.27
2023-03-04T11:53:20.619Z,17.33
2023-03-04T11:55:56.343Z,16.77
2023-03-04T11:58:50.867Z,16.25
2023-03-04T12:01:25.428Z,14.43
2023-03-04T12:04:05.216Z,10.88
2023-03-04T12:06:38.608Z,17.88
2023-03-04T12:09:18.265Z,16.77
2023-03-04T12:11:53.485Z,18.98
2023-03-04T12:14:36.198Z,19.15
2023-03-04T12:17:20.639Z,19.50
2023-03-04T12:20:02.670Z,18.13
2023-03-04T12:22:40.190Z,18.35
2023-03-04T12:25:22.235Z,13.27
2023-03-04T12:27:55.118Z,13.95
2023-03-04T12:30:36.418Z,16.23
2023-03-04T12:33:10.118Z,24.23
2023-03-04T12:35:44.560Z,28.92
2023-03-04T12:38:23.945Z,24.58
2023-03-04T12:40:58.125Z,29.27
2023-03-04T12:43:35.941Z,18.52
2023-03-04T12:46:11.036Z,17.98
2023-03-04T12:48:42.567Z,19.52
2023-03-04T12:51:19.888Z,19.95
2023-03-04T12:53:54.413Z,19.83
2023-03-04T12:56:27.247Z,33.90
2023-03-04T12:58:57.693Z,24.23
2023-03-04T13:01:29.720Z,24.80
2023-03-04T13:04:03.183Z,21.13
2023-03-04T13:06:39.133Z,20.50
2023-03-04T13:09:14.622Z,27.25
2023-03-04T13:11:49.394Z,27.23
2023-03-04T13:14:35.533Z,15.07
2023-03-04T13:17:12.034Z,31.83
2023-03-04T13:19:48.701Z,18.83
2023-03-04T13:22:36.720Z,17.27
2023-03-04T13:25:21.196Z,22.85
2023-03-04T13:27:51.574Z,32.83
2023-03-04T13:30:44.849Z,23.33
2023-03-04T13:33:29.518Z,23.17
2023-03-04T13:36:04.160Z,28.27
2023-03-04T13:38:38.777Z,24.02
2023-03-04T13:41:15.615Z,22.23
2023-03-04T13:43:45.899Z,20.25
2023-03-04T13:46:30.626Z,15.18
2023-03-04T13:49:05.581Z,16.65
2023-03-04T13:51:37.123Z,25.75
2023-03-04T13:54:15.785Z,23.55
2023-03-04T13:56:46.912Z,21.52
2023-03-04T13:59:22.126Z,28.58
2023-03-04T14:01:55.669Z,22.92
2023-03-04T14:04:26.699Z,24.23
2023-03-04T14:06:58.332Z,24.90
2023-03-04T14:09:31.770Z,30.40
2023-03-04T14:12:02.774Z,25.98
2023-03-04T14:14:33.301Z,22.20
2023-03-04T14:17:04.160Z,23.17
2023-03-04T14:19:36.174Z,22.70
2023-03-04T14:22:05.883Z,25.92
2023-03-04T14:24:38.183Z,27.55
2023-03-04T14:27:14.127Z,28.35
2023-03-04T14:29:43.821Z,24.00
2023-03-04T14:32:14.859Z,18.55
2023-03-04T14:34:44.528Z,17.85
2023-03-04T14:37:24.624Z,22.60
2023-03-04T14:39:59.146Z,29.35
2023-03-04T14:42:35.065Z,22.00
2023-03-04T14:45:05.033Z,22.85
2023-03-04T14:47:36.858Z,24.30
2023-03-04T14:50:07.747Z,25.65
2023-03-04T14:52:39.715Z,21.58
2023-03-04T14:55:23.633Z,34.67
2023-03-04T14:57:58.612Z,37.50
2023-03-04T15:00:30.005Z,34.58
2023-03-04T15:03:00.336Z,12.10
2023-03-04T15:05:31.211Z,17.20
2023-03-04T15:08:01.954Z,24.15
2023-03-04T15:10:38.573Z,27.23
2023-03-04T15:13:09.678Z,31.23
2023-03-04T15:15:41.314Z,30.05
2023-03-04T15:18:24.156Z,46.15
2023-03-04T15:20:57.812Z,32.53
2023-03-04T15:23:27.826Z,28.50
2023-03-04T15:26:01.836Z,22.92
2023-03-04T15:28:34.792Z,35.05
2023-03-04T15:31:04.533Z,28.67
2023-03-04T15:33:34.288Z,24.67
2023-03-04T15:36:05.110Z,41.85
2023-03-04T15:38:35.020Z,17.25
2023-03-04T15:41:07.464Z,36.65
2023-03-04T15:43:37.118Z,49.25
2023-03-04T15:46:06.974Z,36.80
2023-03-04T15:48:36.677Z,48.63
2023-03-04T15:51:06.737Z,25.08
2023-03-04T15:53:39.690Z,15.00
2023-03-04T15:56:15.114Z,18.42
2023-03-04T15:58:45.566Z,62.05
2023-03-04T16:01:18.066Z,31.05
2023-03-04T16:03:47.804Z,17.60
2023-03-04T16:06:18.865Z,30.38
2023-03-04T16:08:49.199Z,24.20
2023-03-04T16:11:22.195Z,22.10
2023-03-04T16:13:51.927Z,34.75
2023-03-04T16:16:22.021Z,37.10
2023-03-04T16:18:51.772Z,35.25
2023-03-04T16:21:23.425Z,45.38
2023-03-04T16:23:54.589Z,26.50
2023-03-04T16:26:28.390Z,36.45
2023-03-04T16:28:58.064Z,17.98
2023-03-04T16:31:27.784Z,12.23
2023-03-04T16:33:57.536Z,16.08
2023-03-04T16:36:28.429Z,93.90
2023-03-04T16:38:59.221Z,50.38
2023-03-04T16:41:32.506Z,69.35
2023-03-04T16:44:02.652Z,23.70
2023-03-04T16:46:32.848Z,18.48
2023-03-04T16:49:02.551Z,14.82
2023-03-04T16:51:32.332Z,14.00
2023-03-04T16:54:02.391Z,16.67
2023-03-04T16:56:34.723Z,12.38
2023-03-04T16:59:04.599Z,14.95
2023-03-04T17:01:36.791Z,13.13
2023-03-04T17:04:06.604Z,11.88
2023-03-04T17:06:38.441Z,12.20
2023-03-04T17:09:08.213Z,15.23
2023-03-04T17:11:40.888Z,9.63
2023-03-04T17:14:10.604Z,12.65
2023-03-04T17:16:40.289Z,10.52
2023-03-04T17:19:10.015Z,15.32
2023-03-04T17:21:39.708Z,13.15
2023-03-04T17:24:12.029Z,12.85
2023-03-04T17:26:44.577Z,10.88
2023-03-04T17:29:14.309Z,12.65
2023-03-04T17:31:44.050Z,14.38
2023-03-04T17:34:13.778Z,18.67
2023-03-04T17:36:43.608Z,15.95
2023-03-04T17:39:14.064Z,9.90
2023-03-04T17:41:46.377Z,10.75
2023-03-04T17:44:16.706Z,28.20
2023-03-04T17:46:46.539Z,15.98
2023-03-04T17:49:16.687Z,15.75
2023-03-04T17:51:46.679Z,15.50
2023-03-04T17:54:16.358Z,14.52
2023-03-04T17:56:48.676Z,13.40
2023-03-04T17:59:18.897Z,14.48
2023-03-04T18:01:52.272Z,13.02
2023-03-04T18:04:23.394Z,12.85
2023-03-04T18:06:53.071Z,10.60
2023-03-04T18:09:22.781Z,8.70
2023-03-04T18:11:55.064Z,11.45
2023-03-04T18:14:24.744Z,16.23
2023-03-04T18:16:54.393Z,32.35
2023-03-04T18:19:24.054Z,14.00
2023-03-04T18:21:53.771Z,9.73
2023-03-04T18:24:23.513Z,20.95
2023-03-04T18:26:56.976Z,9.90
2023-03-04T18:29:27.464Z,15.00
2023-03-04T18:31:57.271Z,16.88
2023-03-04T18:34:26.971Z,10.35
2023-03-04T18:36:56.672Z,8.20
2023-03-04T18:39:26.449Z,11.35
2023-03-04T18:41:58.704Z,11.82
2023-03-04T18:44:28.384Z,15.52
2023-03-04T18:46:59.976Z,13.55
2023-03-04T18:49:29.697Z,12.95
2023-03-04T18:51:59.412Z,15.13
2023-03-04T18:54:29.104Z,14.18
2023-03-04T18:57:03.195Z,15.63
2023-03-04T18:59:37.000Z,10.85
2023-03-04T19:02:08.579Z,12.10
2023-03-04T19:04:38.259Z,23.90
2023-03-04T19:07:08.032Z,22.15
2023-03-04T19:09:37.722Z,12.43
2023-03-04T19:12:10.080Z,19.10
2023-03-04T19:14:39.763Z,17.85
2023-03-04T19:17:09.463Z,17.98
2023-03-04T19:19:39.230Z,11.77
2023-03-04T19:22:09.018Z,13.50
2023-03-04T19:24:38.720Z,14.88
2023-03-04T19:27:10.994Z,12.50
2023-03-04T19:29:40.688Z,15.38
2023-03-04T19:32:10.415Z,13.45
2023-03-04T19:34:40.131Z,16.13
2023-03-04T19:37:09.825Z,13.15
2023-03-04T19:39:39.744Z,11.77
2023-03-04T19:42:12.218Z,8.80
2023-03-04T19:44:44.510Z,14.52
2023-03-04T19:47:14.596Z,13.75
2023-03-04T19:49:44.280Z,12.45
2023-03-04T19:52:14.186Z,13.88
2023-03-04T19:54:43.870Z,10.98
2023-03-04T19:57:16.177Z,12.10
2023-03-04T19:59:45.910Z,9.20
2023-03-04T20:02:15.620Z,9.73
2023-03-04T20:04:45.374Z,13.60
2023-03-04T20:07:15.103Z,12.55
2023-03-04T20:09:44.760Z,12.82
2023-03-04T20:12:17.057Z,12.98
2023-03-04T20:14:46.735Z,10.13
2023-03-04T20:17:16.376Z,12.80
2023-03-04T20:19:47.586Z,19.85
2023-03-04T20:22:17.327Z,13.57
2023-03-04T20:24:47.037Z,20.58
2023-03-04T20:27:19.752Z,11.38
2023-03-04T20:29:49.402Z,13.93
2023-03-04T20:32:19.125Z,18.80
2023-03-04T20:34:50.875Z,16.90
2023-03-04T20:37:20.618Z,10.10
2023-03-04T20:39:50.457Z,16.10
2023-03-04T20:42:23.078Z,15.52
2023-03-04T20:44:52.964Z,9.10
2023-03-04T20:47:22.605Z,15.70
2023-03-04T20:49:52.277Z,13.15
2023-03-04T20:52:22.214Z,14.30
2023-03-04T20:54:51.966Z,14.55
2023-03-04T20:57:24.262Z,12.85
2023-03-04T20:59:53.935Z,11.38
2023-03-04T21:02:23.645Z,15.13
2023-03-04T21:04:54.052Z,11.35
2023-03-04T21:07:24.418Z,12.25
2023-03-04T21:09:54.115Z,14.93
2023-03-04T21:12:26.414Z,13.85
2023-03-04T21:14:56.120Z,12.18
2023-03-04T21:17:26.040Z,15.27
2023-03-04T21:19:55.758Z,12.93
2023-03-04T21:22:27.009Z,10.57
2023-03-04T21:24:56.735Z,11.18
2023-03-04T21:27:29.162Z,11.15
2023-03-04T21:29:58.832Z,9.95
2023-03-04T21:32:29.484Z,15.98
2023-03-04T21:34:59.318Z,14.98
2023-03-04T21:37:29.283Z,13.32
2023-03-04T21:40:01.303Z,11.48
2023-03-04T21:42:33.632Z,13.70
2023-03-04T21:45:03.364Z,10.32
2023-03-04T21:47:33.106Z,8.82
2023-03-04T21:50:02.864Z,9.90
2023-03-04T21:52:32.555Z,12.98
2023-03-04T21:55:02.240Z,24.80
2023-03-04T21:57:35.093Z,18.63
2023-03-04T22:00:06.520Z,38.40
2023-03-04T22:02:41.431Z,50.13
2023-03-04T22:05:11.245Z,17.85
2023-03-04T22:07:40.914Z,16.83
2023-03-04T22:10:10.958Z,13.07
2023-03-04T22:12:43.285Z,20.83
2023-03-04T22:15:13.460Z,37.55
2023-03-04T22:17:45.832Z,9.90
2023-03-04T22:20:17.494Z,18.35
2023-03-04T22:22:47.221Z,19.73
2023-03-04T22:25:17.000Z,11.88
2023-03-04T22:27:49.283Z,11.65
2023-03-04T22:30:19.208Z,18.80
2023-03-04T22:32:49.035Z,11.73
2023-03-04T22:35:18.838Z,17.65
2023-03-04T22:37:48.756Z,14.65
2023-03-04T22:40:18.457Z,24.10
2023-03-04T22:42:50.841Z,14.68
2023-03-04T22:45:21.726Z,20.55
2023-03-04T22:47:51.872Z,14.55
2023-03-04T22:50:22.678Z,16.08
2023-03-04T22:52:52.383Z,14.85
2023-03-04T22:55:22.812Z,22.73
2023-03-04T22:57:55.137Z,12.10
2023-03-04T23:00:25.984Z,15.88
2023-03-04T23:02:55.780Z,18.88
2023-03-04T23:05:25.976Z,13.93
2023-03-04T23:07:55.701Z,13.00
2023-03-04T23:10:26.458Z,13.98
2023-03-04T23:12:58.798Z,17.83
2023-03-04T23:15:28.477Z,11.43
2023-03-04T23:17:58.265Z,15.60
2023-03-04T23:20:28.406Z,17.50
2023-03-04T23:22:58.134Z,13.13
2023-03-04T23:25:27.906Z,13.25
2023-03-04T23:28:00.261Z,13.27
2023-03-04T23:30:30.183Z,19.10
2023-03-04T23:32:59.981Z,19.25
2023-03-04T23:35:29.895Z,14.23
2023-03-04T23:37:59.623Z,6.03
2023-03-04T23:40:29.248Z,8.48
2023-03-04T23:43:01.568Z,5.88
2023-03-04T23:45:31.534Z,12.13
2023-03-04T23:48:01.268Z,9.02
2023-03-04T23:50:32.264Z,6.03
2023-03-04T23:53:02.023Z,9.15
2023-03-04T23:55:34.328Z,7.15
2023-03-04T23:58:06.629Z,6.03
